Terminal Aerodrome Forecast
Issued by NWS Riverton, WY

Home | Current Version | Previous Version | Text Only | Print | Product List | Glossary On
Versions: 1 2 3 4 5 6 7 8 9 10 11 12 13 14 15
000
FTUS45 KRIW 022324
TAFRIW
TAF
KRIW 022324Z 0300/0324 VRB10G25KT P6SM VCTS SCT080CB SCT110
     FM030300 36011KT P6SM SCT110
     FM031100 VRB06KT P6SM SCT030
     FM032300 VRB15G30KT P6SM VCTS SCT060CB BKN110=

USA.gov is the U.S. government's official web portal to all federal, state and local government web resources and services.